createdAt,value
2018-12-27T00:01:26.912Z,49.63
2018-12-27T00:03:55.315Z,47.62
2018-12-27T00:06:23.720Z,45.78
2018-12-27T00:08:52.142Z,45.95
2018-12-27T00:11:20.536Z,46.50
2018-12-27T00:13:48.940Z,50.17
2018-12-27T00:16:17.358Z,45.98
2018-12-27T00:18:46.051Z,48.87
2018-12-27T00:21:14.506Z,47.27
2018-12-27T00:23:43.217Z,49.95
2018-12-27T00:26:11.623Z,48.15
2018-12-27T00:28:40.020Z,45.92
2018-12-27T00:31:08.562Z,48.83
2018-12-27T00:33:37.346Z,48.68
2018-12-27T00:36:05.871Z,47.30
2018-12-27T00:38:34.415Z,46.55
2018-12-27T00:41:03.198Z,47.88
2018-12-27T00:43:31.731Z,48.17
2018-12-27T00:46:00.514Z,44.93
2018-12-27T00:48:29.042Z,44.00
2018-12-27T00:50:57.575Z,47.03
2018-12-27T00:53:26.120Z,47.00
2018-12-27T00:55:54.647Z,45.98
2018-12-27T00:58:23.169Z,46.00
2018-12-27T01:00:51.715Z,46.00
2018-12-27T01:03:20.247Z,46.75
2018-12-27T01:05:48.779Z,50.20
2018-12-27T01:08:17.380Z,49.60
2018-12-27T01:10:45.907Z,46.53
2018-12-27T01:13:14.437Z,47.88
2018-12-27T01:15:42.979Z,48.90
2018-12-27T01:18:11.502Z,47.90
2018-12-27T01:20:40.048Z,48.95
2018-12-27T01:23:27.832Z,50.73
2018-12-27T01:25:56.379Z,48.13
2018-12-27T01:28:24.912Z,49.18
2018-12-27T01:30:53.494Z,47.70
2018-12-27T01:33:22.044Z,48.00
2018-12-27T01:35:50.570Z,46.80
2018-12-27T01:38:19.099Z,47.70
2018-12-27T01:40:47.647Z,47.48
2018-12-27T01:43:16.177Z,46.40
2018-12-27T01:45:45.008Z,48.68
2018-12-27T01:48:13.952Z,49.23
2018-12-27T01:50:42.795Z,49.20
2018-12-27T01:53:11.580Z,46.50
2018-12-27T01:55:40.365Z,45.15
2018-12-27T01:58:08.909Z,48.70
2018-12-27T02:00:37.443Z,49.05
2018-12-27T02:03:05.967Z,47.35
2018-12-27T02:05:54.057Z,50.25
2018-12-27T02:08:22.844Z,45.43
2018-12-27T02:10:51.430Z,44.90
2018-12-27T02:13:20.027Z,44.83
2018-12-27T02:15:48.794Z,47.30
2018-12-27T02:18:17.343Z,47.75
2018-12-27T02:20:45.880Z,45.60
2018-12-27T02:23:14.408Z,48.42
2018-12-27T02:25:42.964Z,46.63
2018-12-27T02:28:11.563Z,46.18
2018-12-27T02:30:40.150Z,48.35
2018-12-27T02:33:08.704Z,48.75
2018-12-27T02:35:37.297Z,47.15
2018-12-27T02:38:05.835Z,46.25
2018-12-27T02:40:53.707Z,47.27
2018-12-27T02:43:22.239Z,45.20
2018-12-27T02:45:50.839Z,48.78
2018-12-27T02:48:19.678Z,45.23
2018-12-27T02:50:48.202Z,45.63
2018-12-27T02:53:16.734Z,47.23
2018-12-27T02:55:45.550Z,47.73
2018-12-27T02:58:14.325Z,45.38
2018-12-27T03:00:42.854Z,44.80
2018-12-27T03:03:11.712Z,45.12
2018-12-27T03:05:40.506Z,45.00
2018-12-27T03:08:09.051Z,45.65
2018-12-27T03:10:37.652Z,44.65
2018-12-27T03:13:06.174Z,44.48
2018-12-27T03:15:36.282Z,44.05
2018-12-27T03:18:04.817Z,44.33
2018-12-27T03:20:33.347Z,46.55
2018-12-27T03:23:22.240Z,41.80
2018-12-27T03:25:51.084Z,43.95
2018-12-27T03:28:19.926Z,41.60
2018-12-27T03:30:48.478Z,44.60
2018-12-27T03:33:16.993Z,46.50
2018-12-27T03:35:45.841Z,44.70
2018-12-27T03:38:14.428Z,43.42
2018-12-27T03:40:42.964Z,43.98
2018-12-27T03:43:11.511Z,47.08
2018-12-27T03:45:40.380Z,46.28
2018-12-27T03:48:09.259Z,48.30
2018-12-27T03:50:37.810Z,43.75
2018-12-27T03:53:06.635Z,45.33
2018-12-27T03:55:35.166Z,43.10
2018-12-27T03:58:03.692Z,44.98
2018-12-27T04:00:32.253Z,43.85
2018-12-27T04:03:00.774Z,42.62
2018-12-27T04:05:29.650Z,42.55
2018-12-27T04:07:58.196Z,43.92
2018-12-27T04:10:26.733Z,42.35
2018-12-27T04:12:55.603Z,44.18
2018-12-27T04:15:24.297Z,43.02
2018-12-27T04:17:52.694Z,45.80
2018-12-27T04:20:21.092Z,43.25
2018-12-27T04:22:49.519Z,43.42
2018-12-27T04:25:18.048Z,42.88
2018-12-27T04:27:46.444Z,43.80
2018-12-27T04:30:15.280Z,44.75
2018-12-27T04:32:44.822Z,43.78
2018-12-27T04:35:13.293Z,43.83
2018-12-27T04:37:41.706Z,42.50
2018-12-27T04:40:10.104Z,43.73
2018-12-27T04:42:39.328Z,40.52
2018-12-27T04:45:07.746Z,42.88
2018-12-27T04:47:36.492Z,42.15
2018-12-27T04:50:05.663Z,41.83
2018-12-27T04:52:34.072Z,43.40
2018-12-27T04:55:02.481Z,43.10
2018-12-27T04:57:30.893Z,42.17
2018-12-27T04:59:59.611Z,43.20
2018-12-27T05:02:28.316Z,41.02
2018-12-27T05:04:56.983Z,40.65
2018-12-27T05:07:25.402Z,41.28
2018-12-27T05:09:53.799Z,41.20
2018-12-27T05:12:22.197Z,41.98
2018-12-27T05:14:50.915Z,39.40
2018-12-27T05:17:19.315Z,41.55
2018-12-27T05:19:47.733Z,38.90
2018-12-27T05:22:16.134Z,40.45
2018-12-27T05:24:44.537Z,41.60
2018-12-27T05:27:12.947Z,39.10
2018-12-27T05:29:41.404Z,43.55
2018-12-27T05:32:09.799Z,39.48
2018-12-27T05:34:38.283Z,39.88
2018-12-27T05:37:06.686Z,41.23
2018-12-27T05:39:35.086Z,38.30
2018-12-27T05:42:03.495Z,38.45
2018-12-27T05:44:31.902Z,39.00
2018-12-27T05:47:00.651Z,38.10
2018-12-27T05:49:29.344Z,36.75
2018-12-27T05:51:57.740Z,38.25
2018-12-27T05:54:26.158Z,37.60
2018-12-27T05:56:54.549Z,36.63
2018-12-27T05:59:23.261Z,38.35
2018-12-27T06:01:51.675Z,36.50
2018-12-27T06:04:20.142Z,38.92
2018-12-27T06:06:48.463Z,39.83
2018-12-27T06:09:17.186Z,39.40
2018-12-27T06:11:45.871Z,38.02
2018-12-27T06:14:14.284Z,38.38
2018-12-27T06:16:42.685Z,40.03
2018-12-27T06:19:11.417Z,39.95
2018-12-27T06:21:39.836Z,39.18
2018-12-27T06:24:08.230Z,41.65
2018-12-27T06:26:36.624Z,39.27
2018-12-27T06:29:05.035Z,39.27
2018-12-27T06:31:33.454Z,39.73
2018-12-27T06:34:01.848Z,37.80
2018-12-27T06:36:30.481Z,42.05
2018-12-27T06:38:58.985Z,39.60
2018-12-27T06:41:27.368Z,38.65
2018-12-27T06:43:55.781Z,37.05
2018-12-27T06:46:24.177Z,37.90
2018-12-27T06:48:52.569Z,38.05
2018-12-27T06:51:21.262Z,38.67
2018-12-27T06:53:49.662Z,37.98
2018-12-27T06:56:18.060Z,36.63
2018-12-27T06:58:46.806Z,37.65
2018-12-27T07:01:15.205Z,39.48
2018-12-27T07:03:43.870Z,39.73
2018-12-27T07:06:12.287Z,37.58
2018-12-27T07:08:40.941Z,39.33
2018-12-27T07:11:09.352Z,38.35
2018-12-27T07:13:38.101Z,39.53
2018-12-27T07:16:06.500Z,41.20
2018-12-27T07:18:34.892Z,38.63
2018-12-27T07:21:03.365Z,40.05
2018-12-27T07:23:31.765Z,41.37
2018-12-27T07:26:00.510Z,40.75
2018-12-27T07:28:28.938Z,39.05
2018-12-27T07:30:57.573Z,39.15
2018-12-27T07:33:26.277Z,43.35
2018-12-27T07:35:54.946Z,39.40
2018-12-27T07:38:23.396Z,41.65
2018-12-27T07:40:52.116Z,43.10
2018-12-27T07:43:20.533Z,41.15
2018-12-27T07:45:48.931Z,42.55
2018-12-27T07:48:17.661Z,41.10
2018-12-27T07:50:46.552Z,40.15
2018-12-27T07:53:14.960Z,38.10
2018-12-27T07:55:43.372Z,40.40
2018-12-27T07:58:12.104Z,38.33
2018-12-27T08:00:40.515Z,37.23
2018-12-27T08:03:08.907Z,38.20
2018-12-27T08:05:37.318Z,40.60
2018-12-27T08:08:05.725Z,39.18
2018-12-27T08:10:34.411Z,38.10
2018-12-27T08:13:02.807Z,35.80
2018-12-27T08:15:31.219Z,37.78
2018-12-27T08:17:59.611Z,37.08
2018-12-27T08:20:28.007Z,37.00
2018-12-27T08:22:56.419Z,37.05
2018-12-27T08:25:24.814Z,36.40
2018-12-27T08:27:53.599Z,35.98
2018-12-27T08:30:22.258Z,37.20
2018-12-27T08:32:50.952Z,35.85
2018-12-27T08:35:19.348Z,35.15
2018-12-27T08:37:47.754Z,34.75
2018-12-27T08:40:16.149Z,36.53
2018-12-27T08:42:44.858Z,35.17
2018-12-27T08:45:13.272Z,37.08
2018-12-27T08:47:41.924Z,37.15
2018-12-27T08:50:10.319Z,36.03
2018-12-27T08:52:38.787Z,34.75
2018-12-27T08:55:07.252Z,34.40
2018-12-27T08:57:35.952Z,34.25
2018-12-27T09:00:06.887Z,33.73
2018-12-27T09:02:35.570Z,35.13
2018-12-27T09:05:04.361Z,36.25
2018-12-27T09:07:32.773Z,33.00
2018-12-27T09:10:01.163Z,34.13
2018-12-27T09:12:29.551Z,33.20
2018-12-27T09:14:58.017Z,35.50
2018-12-27T09:17:26.411Z,35.58
2018-12-27T09:19:54.802Z,36.08
2018-12-27T09:22:23.265Z,35.50
2018-12-27T09:24:51.667Z,37.40
2018-12-27T09:27:20.061Z,36.58
2018-12-27T09:29:48.467Z,35.58
2018-12-27T09:32:17.143Z,38.60
2018-12-27T09:34:45.831Z,37.10
2018-12-27T09:37:14.514Z,38.35
2018-12-27T09:39:43.196Z,38.02
2018-12-27T09:42:11.887Z,36.73
2018-12-27T09:44:40.287Z,37.50
2018-12-27T09:47:08.688Z,37.23
2018-12-27T09:49:37.324Z,41.42
2018-12-27T09:52:05.731Z,40.38
2018-12-27T09:54:34.394Z,39.60
2018-12-27T09:57:03.090Z,38.60
2018-12-27T09:59:31.485Z,38.20
2018-12-27T10:01:59.893Z,37.13
2018-12-27T10:04:28.280Z,37.78
2018-12-27T10:06:57.004Z,37.05
2018-12-27T10:09:25.411Z,37.10
2018-12-27T10:11:54.912Z,36.40
2018-12-27T10:14:23.323Z,35.70
2018-12-27T10:16:52.053Z,37.40
2018-12-27T10:19:20.744Z,36.63
2018-12-27T10:21:49.147Z,37.25
2018-12-27T10:24:17.534Z,38.10
2018-12-27T10:26:46.169Z,36.75
2018-12-27T10:29:14.571Z,36.60
2018-12-27T10:31:42.965Z,39.00
2018-12-27T10:34:11.625Z,37.53
2018-12-27T10:36:40.882Z,36.70
2018-12-27T10:39:09.613Z,36.80
2018-12-27T10:41:38.008Z,37.17
2018-12-27T10:44:06.488Z,37.30
2018-12-27T10:46:34.877Z,35.28
2018-12-27T10:49:03.640Z,38.53
2018-12-27T10:51:32.325Z,36.70
2018-12-27T10:54:01.013Z,36.05
2018-12-27T10:56:29.405Z,34.48
2018-12-27T10:58:57.810Z,35.35
2018-12-27T11:01:26.200Z,35.63
2018-12-27T11:03:54.590Z,36.65
2018-12-27T11:06:22.997Z,35.25
2018-12-27T11:08:51.398Z,36.00
2018-12-27T11:11:20.074Z,34.30
2018-12-27T11:13:48.481Z,36.23
2018-12-27T11:16:17.136Z,34.90
2018-12-27T11:18:45.590Z,35.48
2018-12-27T11:21:13.998Z,33.73
2018-12-27T11:23:42.392Z,36.83
2018-12-27T11:26:10.779Z,35.92
2018-12-27T11:28:39.186Z,35.55
2018-12-27T11:31:07.576Z,35.40
2018-12-27T11:33:35.966Z,35.00
2018-12-27T11:36:04.685Z,36.80
2018-12-27T11:38:33.366Z,34.38
2018-12-27T11:41:05.461Z,36.65
2018-12-27T11:43:34.410Z,34.73
2018-12-27T11:46:03.116Z,34.88
2018-12-27T11:48:31.503Z,35.78
2018-12-27T11:50:59.962Z,33.80
2018-12-27T11:53:28.350Z,35.43
2018-12-27T11:55:56.738Z,38.42
2018-12-27T11:58:25.157Z,35.60
2018-12-27T12:00:53.895Z,36.68
2018-12-27T12:03:22.580Z,37.20
2018-12-27T12:05:50.981Z,35.23
2018-12-27T12:08:19.385Z,34.50
2018-12-27T12:10:47.771Z,34.83
2018-12-27T12:13:16.162Z,34.55
2018-12-27T12:15:44.568Z,33.35
2018-12-27T12:18:13.261Z,35.83
2018-12-27T12:20:41.734Z,34.45
2018-12-27T12:23:10.140Z,33.55
2018-12-27T12:25:38.526Z,33.88
2018-12-27T12:28:06.916Z,34.03
2018-12-27T12:30:35.556Z,34.20
2018-12-27T12:33:04.699Z,33.10
2018-12-27T12:35:33.082Z,34.45
2018-12-27T12:38:01.758Z,33.15
2018-12-27T12:40:30.150Z,33.60
2018-12-27T12:43:00.220Z,34.30
2018-12-27T12:45:28.912Z,34.38
2018-12-27T12:47:57.423Z,34.90
2018-12-27T12:50:25.778Z,34.43
2018-12-27T12:52:54.453Z,33.92
2018-12-27T12:55:22.844Z,35.35
2018-12-27T12:57:51.238Z,34.40
2018-12-27T13:00:19.885Z,33.90
2018-12-27T13:02:48.810Z,34.08
2018-12-27T13:05:17.250Z,35.73
2018-12-27T13:07:45.665Z,33.02
2018-12-27T13:10:14.349Z,33.63
2018-12-27T13:12:43.010Z,32.73
2018-12-27T13:15:11.421Z,33.83
2018-12-27T13:17:40.882Z,31.82
2018-12-27T13:20:09.694Z,31.70
2018-12-27T13:22:38.097Z,32.58
2018-12-27T13:25:06.964Z,33.30
2018-12-27T13:27:35.355Z,33.98
2018-12-27T13:30:04.645Z,32.20
2018-12-27T13:32:33.328Z,32.13
2018-12-27T13:35:01.722Z,32.70
2018-12-27T13:37:30.135Z,31.77
2018-12-27T13:39:58.530Z,33.42
2018-12-27T13:42:27.266Z,33.10
2018-12-27T13:44:55.666Z,32.15
2018-12-27T13:47:24.241Z,36.88
2018-12-27T13:49:52.896Z,34.85
2018-12-27T13:52:21.358Z,33.85
2018-12-27T13:54:50.068Z,35.60
2018-12-27T13:57:18.710Z,34.23
2018-12-27T13:59:47.112Z,34.65
2018-12-27T14:02:15.816Z,34.63
2018-12-27T14:04:44.219Z,35.10
2018-12-27T14:07:12.879Z,35.52
2018-12-27T14:09:41.272Z,37.00
2018-12-27T14:12:09.944Z,36.23
2018-12-27T14:14:38.395Z,35.80
2018-12-27T14:17:06.793Z,39.27
2018-12-27T14:19:35.204Z,37.67
2018-12-27T14:22:03.873Z,39.00
2018-12-27T14:24:32.275Z,42.35
2018-12-27T14:27:01.427Z,43.20
2018-12-27T14:29:30.135Z,42.70
2018-12-27T14:31:58.763Z,44.25
2018-12-27T14:34:27.506Z,45.05
2018-12-27T14:36:55.922Z,47.90
2018-12-27T14:39:24.572Z,47.80
2018-12-27T14:41:52.973Z,47.43
2018-12-27T14:44:21.382Z,45.45
2018-12-27T14:46:49.773Z,47.50
2018-12-27T14:49:18.497Z,48.45
2018-12-27T14:51:46.890Z,48.92
2018-12-27T14:54:15.287Z,50.08
2018-12-27T14:56:43.697Z,50.35
2018-12-27T14:59:12.420Z,51.88
2018-12-27T15:01:41.102Z,51.37
2018-12-27T15:04:09.792Z,51.15
2018-12-27T15:06:38.203Z,53.90
2018-12-27T15:09:07.170Z,49.60
2018-12-27T15:11:35.846Z,50.75
2018-12-27T15:14:04.244Z,52.85
2018-12-27T15:16:32.925Z,50.70
2018-12-27T15:19:01.336Z,49.38
2018-12-27T15:21:29.730Z,54.60
2018-12-27T15:23:58.123Z,50.55
2018-12-27T15:26:26.838Z,51.68
2018-12-27T15:28:55.235Z,52.85
2018-12-27T15:31:23.659Z,50.60
2018-12-27T15:33:52.202Z,51.90
2018-12-27T15:36:20.578Z,52.27
2018-12-27T15:38:48.934Z,51.25
2018-12-27T15:41:36.724Z,51.50
2018-12-27T15:44:05.392Z,51.75
2018-12-27T15:46:33.785Z,55.65
2018-12-27T15:49:02.457Z,51.15
2018-12-27T15:51:30.851Z,53.35
2018-12-27T15:53:59.243Z,53.10
2018-12-27T15:56:27.655Z,54.60
2018-12-27T15:58:56.391Z,50.98
2018-12-27T16:01:25.169Z,49.38
2018-12-27T16:03:53.581Z,54.75
2018-12-27T16:06:21.975Z,49.23
2018-12-27T16:08:50.366Z,49.58
2018-12-27T16:11:18.775Z,50.08
2018-12-27T16:13:47.179Z,50.95
2018-12-27T16:16:15.574Z,53.08
2018-12-27T16:18:44.231Z,53.05
2018-12-27T16:21:12.918Z,54.35
2018-12-27T16:23:41.602Z,52.73
2018-12-27T16:26:10.009Z,46.60
2018-12-27T16:28:38.402Z,49.98
2018-12-27T16:34:20.995Z,47.53
2018-12-27T16:36:49.676Z,50.30
2018-12-27T16:39:18.368Z,48.00
2018-12-27T16:41:46.777Z,48.42
2018-12-27T16:44:15.429Z,47.85
2018-12-27T16:46:43.824Z,46.75
2018-12-27T16:49:12.289Z,45.08
2018-12-27T16:51:40.978Z,47.10
2018-12-27T16:54:09.661Z,46.75
2018-12-27T16:56:38.118Z,47.17
2018-12-27T16:59:06.758Z,45.35
2018-12-27T17:01:35.121Z,43.38
2018-12-27T17:04:03.525Z,46.85
2018-12-27T17:06:31.918Z,45.75
2018-12-27T17:09:00.653Z,44.53
2018-12-27T17:11:29.045Z,47.60
2018-12-27T17:13:57.722Z,45.38
2018-12-27T17:16:26.405Z,46.77
2018-12-27T17:19:14.134Z,44.53
2018-12-27T17:21:42.541Z,46.55
2018-12-27T17:24:11.198Z,46.00
2018-12-27T17:26:39.891Z,47.55
2018-12-27T17:29:08.301Z,47.55
2018-12-27T17:31:36.700Z,49.10
2018-12-27T17:34:05.097Z,48.52
2018-12-27T17:36:33.501Z,48.63
2018-12-27T17:39:01.899Z,48.78
2018-12-27T17:41:30.565Z,48.85
2018-12-27T17:43:59.225Z,50.00
2018-12-27T17:46:27.638Z,46.45
2018-12-27T17:48:56.029Z,47.65
2018-12-27T17:51:24.426Z,47.83
2018-12-27T17:53:52.843Z,50.63
2018-12-27T17:56:21.239Z,49.63
2018-12-27T17:58:49.874Z,47.67
2018-12-27T18:01:18.286Z,49.42
2018-12-27T18:03:47.013Z,48.58
2018-12-27T18:06:15.417Z,50.30
2018-12-27T18:08:43.886Z,50.28
2018-12-27T18:11:12.287Z,49.23
2018-12-27T18:13:40.684Z,49.98
2018-12-27T18:16:09.521Z,52.38
2018-12-27T18:18:37.918Z,48.92
2018-12-27T18:21:06.315Z,53.50
2018-12-27T18:23:34.738Z,47.43
2018-12-27T18:26:03.130Z,56.00
2018-12-27T18:28:31.809Z,52.30
2018-12-27T18:31:00.227Z,52.33
2018-12-27T18:33:28.627Z,53.98
2018-12-27T18:35:57.356Z,53.23
2018-12-27T18:38:25.773Z,57.75
2018-12-27T18:40:54.166Z,58.25
2018-12-27T18:43:22.902Z,56.30
2018-12-27T18:46:10.760Z,58.48
2018-12-27T18:48:39.672Z,56.77
2018-12-27T18:51:08.209Z,59.38
2018-12-27T18:53:36.734Z,51.92
2018-12-27T18:56:05.068Z,52.23
2018-12-27T18:58:33.498Z,57.08
2018-12-27T19:01:01.881Z,52.62
2018-12-27T19:03:30.274Z,53.98
2018-12-27T19:06:06.371Z,54.08
2018-12-27T19:08:34.767Z,55.00
2018-12-27T19:11:42.019Z,55.17
2018-12-27T19:14:10.410Z,52.73
2018-12-27T19:16:38.807Z,54.70
2018-12-27T19:19:07.484Z,58.10
2018-12-27T19:22:15.799Z,58.13
2018-12-27T19:24:44.212Z,56.92
2018-12-27T19:27:12.611Z,54.35
2018-12-27T19:29:41.341Z,58.33
2018-12-27T19:32:09.812Z,63.35
2018-12-27T19:34:38.227Z,62.48
2018-12-27T19:37:06.617Z,57.20
2018-12-27T19:39:35.013Z,56.25
2018-12-27T19:42:03.486Z,53.55
2018-12-27T19:44:31.825Z,57.98
2018-12-27T19:47:00.223Z,61.05
2018-12-27T19:49:28.628Z,56.80
2018-12-27T19:51:57.022Z,59.93
2018-12-27T19:54:31.729Z,59.27
2018-12-27T19:56:55.542Z,60.52
2018-12-27T19:59:43.276Z,60.60
2018-12-27T20:02:11.694Z,57.13
2018-12-27T20:04:40.082Z,56.95
2018-12-27T20:10:02.916Z,59.55
2018-12-27T20:12:31.316Z,61.33
2018-12-27T20:14:59.710Z,62.70
2018-12-27T20:17:28.122Z,60.52
2018-12-27T20:20:15.863Z,56.85
2018-12-27T20:22:44.281Z,58.63
2018-12-27T20:25:12.680Z,59.42
2018-12-27T20:27:41.334Z,56.63
2018-12-27T20:30:09.747Z,61.88
2018-12-27T20:32:38.138Z,61.95
2018-12-27T20:35:06.788Z,58.65
2018-12-27T20:37:35.420Z,58.10
2018-12-27T20:43:11.899Z,57.95
2018-12-27T20:45:40.633Z,57.05
2018-12-27T20:48:09.030Z,54.00
2018-12-27T20:50:37.442Z,53.17
2018-12-27T20:53:06.178Z,54.65
2018-12-27T20:55:53.938Z,54.88
2018-12-27T20:58:22.598Z,53.65
2018-12-27T21:00:51.234Z,54.15
2018-12-27T21:03:19.989Z,56.88
2018-12-27T21:06:07.702Z,53.70
2018-12-27T21:08:36.110Z,56.85
2018-12-27T21:11:04.745Z,54.77
2018-12-27T21:13:33.467Z,58.70
2018-12-27T21:16:02.141Z,57.88
2018-12-27T21:18:30.826Z,56.48
2018-12-27T21:20:59.517Z,55.65
2018-12-27T21:23:28.197Z,55.58
2018-12-27T21:25:56.589Z,59.67
2018-12-27T21:28:25.047Z,59.03
2018-12-27T21:30:53.455Z,58.48
2018-12-27T21:33:21.846Z,59.40
2018-12-27T21:35:50.504Z,56.42
2018-12-27T21:38:21.494Z,60.88
2018-12-27T21:40:49.272Z,58.15
2018-12-27T21:43:17.670Z,59.27
2018-12-27T21:45:46.370Z,57.60
2018-12-27T21:48:14.768Z,62.95
2018-12-27T21:50:43.436Z,58.48
2018-12-27T21:53:11.855Z,61.25
2018-12-27T21:55:40.253Z,61.18
2018-12-27T21:58:08.651Z,59.45
2018-12-27T22:00:37.064Z,62.20
2018-12-27T22:03:05.461Z,58.95
2018-12-27T22:05:33.912Z,60.92
2018-12-27T22:08:02.329Z,61.13
2018-12-27T22:10:30.726Z,59.38
2018-12-27T22:12:59.131Z,62.70
2018-12-27T22:15:27.839Z,60.12
2018-12-27T22:17:56.233Z,59.90
2018-12-27T22:20:24.913Z,60.30
2018-12-27T22:22:53.323Z,58.85
2018-12-27T22:25:21.722Z,61.08
2018-12-27T22:27:50.118Z,57.43
2018-12-27T22:30:18.531Z,58.48
2018-12-27T22:32:47.206Z,55.80
2018-12-27T22:35:15.610Z,57.27
2018-12-27T22:37:44.373Z,60.28
2018-12-27T22:40:12.776Z,59.55
2018-12-27T22:42:41.169Z,58.02
2018-12-27T22:45:09.579Z,62.38
2018-12-27T22:47:37.995Z,58.68
2018-12-27T22:50:25.743Z,60.30
2018-12-27T22:52:54.147Z,55.78
2018-12-27T22:56:02.519Z,57.27
2018-12-27T22:58:31.163Z,52.88
2018-12-27T23:00:59.632Z,53.33
2018-12-27T23:03:28.047Z,55.83
2018-12-27T23:05:56.452Z,55.08
2018-12-27T23:08:25.091Z,53.42
2018-12-27T23:10:53.813Z,56.10
2018-12-27T23:13:22.218Z,55.65
2018-12-27T23:15:50.615Z,55.90
2018-12-27T23:18:19.027Z,53.45
2018-12-27T23:20:47.744Z,53.45
2018-12-27T23:23:16.134Z,55.52
2018-12-27T23:25:44.801Z,52.15
2018-12-27T23:28:13.465Z,57.73
2018-12-27T23:30:41.863Z,56.35
2018-12-27T23:33:10.556Z,55.50
2018-12-27T23:35:39.113Z,57.10
2018-12-27T23:38:07.825Z,55.33
2018-12-27T23:40:36.249Z,56.83
2018-12-27T23:43:04.646Z,55.00
2018-12-27T23:45:33.054Z,53.78
2018-12-27T23:48:01.458Z,57.33
2018-12-27T23:50:49.216Z,55.75
2018-12-27T23:53:17.633Z,56.15
2018-12-27T23:55:46.035Z,53.55
2018-12-27T23:58:14.492Z,55.03
